If you wish to contribute or participate in the discussions about articles you are invited to join SKYbrary as a registered user

 Actions

Almería International Airport

From SKYbrary Wiki

LEAM
Airport
ICAO: LEAM – IATA: LEI
Summary
Name Almería International Airport
Region Europe
Territory Spain ES.gif
Location , Andalucia
Serving Almeria
Elevation 21.336 m
70 ft
70 ft21.336 m
Type medium airport
Coordinates 36° 50' 38.17" N, 2° 22' 12.35" W
Runways
Designator Length Width Surface ROPS
8/26 3200 m10,498.688 ft
45 m147.638 ft
ASP no/no


METAR
Observation LEAM 142200Z 33007KT 300V360 CAVOK 13/M00 Q1025
Station Almeria / Aeropuerto
Date/Time 14 December 2018 22:00:00
Wind direction 330°
Wind speed 07 kts
Lowest cloud amount clouds and visibility OK
Temperature 13°C
Dew point
Humidity 40%
QNH 1025 hPa
Weather condition n/a